createdAt,value
2024-04-18T00:00:35.509Z,11.75
2024-04-18T00:03:05.342Z,13.80
2024-04-18T00:05:32.576Z,12.80
2024-04-18T00:08:02.429Z,11.65
2024-04-18T00:10:32.238Z,13.20
2024-04-18T00:13:02.004Z,13.18
2024-04-18T00:15:29.220Z,12.35
2024-04-18T00:17:59.507Z,12.85
2024-04-18T00:20:26.735Z,13.23
2024-04-18T00:22:57.118Z,12.52
2024-04-18T00:25:34.791Z,12.70
2024-04-18T00:28:04.857Z,14.77
2024-04-18T00:30:41.256Z,12.68
2024-04-18T00:33:12.261Z,12.02
2024-04-18T00:35:39.649Z,13.38
2024-04-18T00:38:15.007Z,12.52
2024-04-18T00:40:45.201Z,13.60
2024-04-18T00:43:23.076Z,16.48
2024-04-18T00:45:54.095Z,15.03
2024-04-18T00:48:25.115Z,15.10
2024-04-18T00:50:56.640Z,14.75
2024-04-18T00:53:28.136Z,15.20
2024-04-18T00:55:58.802Z,13.02
2024-04-18T00:58:47.876Z,12.15
2024-04-18T01:01:22.456Z,15.77
2024-04-18T01:03:59.441Z,13.32
2024-04-18T01:06:47.828Z,13.90
2024-04-18T01:09:15.640Z,12.40
2024-04-18T01:12:08.605Z,12.48
2024-04-18T01:14:35.809Z,13.18
2024-04-18T01:17:06.893Z,14.68
2024-04-18T01:19:34.327Z,13.98
2024-04-18T01:22:06.150Z,14.05
2024-04-18T01:24:34.082Z,14.18
2024-04-18T01:27:07.902Z,16.73
2024-04-18T01:29:44.773Z,14.40
2024-04-18T01:32:36.390Z,15.75
2024-04-18T01:35:05.654Z,17.67
2024-04-18T01:37:51.033Z,15.52
2024-04-18T01:40:18.834Z,16.55
2024-04-18T01:43:11.948Z,16.10
2024-04-18T01:45:58.060Z,14.07
2024-04-18T01:48:27.850Z,17.40
2024-04-18T01:51:13.740Z,15.75
2024-04-18T01:53:43.542Z,15.95
2024-04-18T01:56:19.839Z,18.75
2024-04-18T01:58:52.271Z,17.65
2024-04-18T02:01:24.453Z,15.05
2024-04-18T02:03:54.620Z,16.80
2024-04-18T02:06:21.684Z,16.65
2024-04-18T02:08:51.610Z,18.10
2024-04-18T02:11:41.605Z,16.55
2024-04-18T02:14:17.343Z,17.77
2024-04-18T02:16:44.548Z,17.40
2024-04-18T02:19:26.730Z,20.48
2024-04-18T02:22:20.015Z,17.70
2024-04-18T02:25:12.481Z,19.30
2024-04-18T02:27:40.478Z,18.88
2024-04-18T02:30:28.580Z,20.83
2024-04-18T02:33:13.741Z,24.92
2024-04-18T02:35:47.077Z,20.38
2024-04-18T02:38:35.690Z,24.13
2024-04-18T02:41:04.394Z,22.58
2024-04-18T02:43:56.139Z,23.40
2024-04-18T02:46:25.862Z,23.23
2024-04-18T02:49:14.414Z,22.45
2024-04-18T02:51:56.908Z,20.70
2024-04-18T02:54:45.731Z,24.15
2024-04-18T02:57:12.862Z,21.92
2024-04-18T02:59:42.835Z,25.33
2024-04-18T03:02:28.022Z,23.45
2024-04-18T03:05:14.077Z,22.60
2024-04-18T03:07:43.713Z,23.27
2024-04-18T03:10:10.839Z,25.10
2024-04-18T03:13:00.506Z,23.77
2024-04-18T03:15:47.156Z,23.77
2024-04-18T03:18:19.692Z,23.02
2024-04-18T03:20:55.537Z,25.30
2024-04-18T03:26:32.979Z,21.20
2024-04-18T03:29:00.171Z,26.45
2024-04-18T03:31:29.858Z,24.48
2024-04-18T03:33:59.614Z,25.98
2024-04-18T03:36:29.297Z,26.98
2024-04-18T03:39:02.206Z,26.58
2024-04-18T03:41:31.951Z,25.27
2024-04-18T03:44:17.782Z,25.48
2024-04-18T03:46:47.484Z,26.65
2024-04-18T03:49:39.075Z,23.73
2024-04-18T03:52:06.690Z,28.05
2024-04-18T03:54:51.448Z,25.52
2024-04-18T03:57:40.478Z,26.60
2024-04-18T04:00:11.360Z,27.73
2024-04-18T04:02:40.442Z,29.13
2024-04-18T04:05:12.976Z,27.23
2024-04-18T04:07:40.166Z,30.20
2024-04-18T04:10:10.055Z,27.65
2024-04-18T04:12:41.285Z,29.58
2024-04-18T04:15:08.820Z,26.85
2024-04-18T04:17:40.697Z,27.40
2024-04-18T04:20:10.575Z,31.50
2024-04-18T04:22:40.348Z,30.42
2024-04-18T04:25:25.651Z,30.80
2024-04-18T04:27:55.404Z,28.90
2024-04-18T04:30:22.511Z,30.80
2024-04-18T04:32:52.215Z,31.00
2024-04-18T04:35:37.173Z,26.98
2024-04-18T04:38:07.136Z,31.35
2024-04-18T04:40:34.560Z,28.38
2024-04-18T04:43:04.399Z,31.42
2024-04-18T04:45:31.641Z,35.60
2024-04-18T04:48:09.005Z,28.10
2024-04-18T04:51:00.879Z,29.58
2024-04-18T04:53:36.695Z,31.95
2024-04-18T04:56:04.118Z,27.60
2024-04-18T04:58:33.823Z,26.42
2024-04-18T05:01:01.057Z,30.30
2024-04-18T05:03:39.722Z,27.33
2024-04-18T05:06:27.835Z,31.35
2024-04-18T05:09:19.544Z,27.25
2024-04-18T05:11:46.836Z,30.20
2024-04-18T05:14:35.392Z,26.90
2024-04-18T05:17:22.394Z,30.48
2024-04-18T05:20:12.745Z,28.77
2024-04-18T05:22:42.512Z,27.70
2024-04-18T05:25:14.244Z,29.50
2024-04-18T05:27:46.228Z,25.00
2024-04-18T05:30:51.943Z,25.95
2024-04-18T05:33:21.949Z,25.13
2024-04-18T05:35:51.786Z,26.13
2024-04-18T05:38:24.289Z,26.52
2024-04-18T05:40:54.040Z,28.65
2024-04-18T05:43:43.731Z,31.08
2024-04-18T05:46:13.509Z,29.67
2024-04-18T05:48:43.269Z,25.60
2024-04-18T05:51:13.009Z,26.55
2024-04-18T05:54:05.775Z,25.52
2024-04-18T05:56:35.439Z,28.90
2024-04-18T05:59:05.118Z,22.17
2024-04-18T06:01:35.771Z,23.73
2024-04-18T06:04:05.645Z,19.70
2024-04-18T06:06:35.495Z,19.98
2024-04-18T06:09:23.754Z,17.95
2024-04-18T06:11:53.473Z,22.45
2024-04-18T06:14:23.154Z,23.65
2024-04-18T06:16:53.474Z,19.73
2024-04-18T06:19:43.193Z,21.40
2024-04-18T06:22:30.716Z,16.83
2024-04-18T06:25:21.637Z,19.15
2024-04-18T06:27:51.499Z,19.30
2024-04-18T06:30:21.695Z,16.65
2024-04-18T06:32:51.501Z,17.42
2024-04-18T06:35:21.299Z,19.25
2024-04-18T06:37:51.725Z,15.23
2024-04-18T06:40:24.965Z,14.50
2024-04-18T06:42:55.124Z,15.80
2024-04-18T06:45:26.368Z,12.90
2024-04-18T06:47:56.462Z,11.98
2024-04-18T06:50:27.115Z,15.93
2024-04-18T06:52:57.164Z,16.45
2024-04-18T06:55:29.571Z,12.93
2024-04-18T06:57:59.832Z,18.42
2024-04-18T07:00:30.002Z,30.80
2024-04-18T07:02:59.793Z,22.17
2024-04-18T07:05:48.655Z,22.95
2024-04-18T07:08:25.434Z,13.93
2024-04-18T07:11:00.056Z,14.20
2024-04-18T07:13:32.816Z,13.83
2024-04-18T07:16:06.948Z,14.82
2024-04-18T07:18:55.651Z,14.40
2024-04-18T07:21:25.908Z,18.98
2024-04-18T07:24:15.805Z,14.35
2024-04-18T07:26:48.393Z,14.93
2024-04-18T07:29:15.611Z,15.73
2024-04-18T07:31:45.494Z,14.98
2024-04-18T07:34:15.462Z,12.60
2024-04-18T07:36:47.242Z,17.15
2024-04-18T07:39:17.045Z,17.30
2024-04-18T07:41:50.380Z,16.80
2024-04-18T07:44:23.016Z,15.27
2024-04-18T07:46:54.712Z,16.33
2024-04-18T07:49:24.442Z,12.07
2024-04-18T07:51:56.843Z,16.60
2024-04-18T07:54:27.140Z,11.75
2024-04-18T07:56:57.312Z,11.05
2024-04-18T07:59:27.927Z,12.05
2024-04-18T08:01:59.904Z,11.55
2024-04-18T08:04:50.611Z,12.88
2024-04-18T08:07:23.186Z,17.30
2024-04-18T08:09:57.556Z,12.90
2024-04-18T08:12:35.676Z,12.40
2024-04-18T08:15:14.246Z,12.98
2024-04-18T08:17:47.218Z,11.40
2024-04-18T08:20:16.931Z,12.77
2024-04-18T08:22:47.613Z,10.07
2024-04-18T08:25:17.732Z,11.82
2024-04-18T08:27:50.373Z,12.05
2024-04-18T08:30:20.724Z,9.75
2024-04-18T08:32:50.619Z,10.43
2024-04-18T08:35:20.499Z,12.90
2024-04-18T08:37:51.644Z,8.98
2024-04-18T08:40:22.242Z,9.30
2024-04-18T08:42:55.309Z,9.48
2024-04-18T08:45:29.550Z,10.20
2024-04-18T08:48:02.155Z,8.63
2024-04-18T08:50:33.123Z,8.05
2024-04-18T08:53:04.149Z,7.90
2024-04-18T08:55:36.455Z,10.98
2024-04-18T08:58:16.452Z,12.55
2024-04-18T09:00:49.191Z,7.85
2024-04-18T09:03:22.180Z,9.85
2024-04-18T09:05:51.921Z,8.90
2024-04-18T09:08:21.672Z,8.80
2024-04-18T09:10:52.196Z,8.38
2024-04-18T09:13:26.238Z,8.77
2024-04-18T09:15:57.054Z,10.73
2024-04-18T09:18:28.160Z,8.70
2024-04-18T09:20:58.667Z,7.15
2024-04-18T09:23:28.499Z,7.38
2024-04-18T09:25:58.246Z,5.25
2024-04-18T09:28:30.794Z,8.13
2024-04-18T09:31:04.932Z,6.10
2024-04-18T09:33:36.856Z,8.40
2024-04-18T09:36:08.205Z,6.93
2024-04-18T09:38:44.036Z,4.53
2024-04-18T09:41:18.269Z,7.22
2024-04-18T09:44:04.191Z,5.23
2024-04-18T09:46:35.598Z,7.55
2024-04-18T09:49:06.522Z,10.88
2024-04-18T09:51:36.517Z,7.28
2024-04-18T09:54:09.121Z,8.38
2024-04-18T09:56:41.592Z,6.70
2024-04-18T09:59:16.191Z,6.13
2024-04-18T10:01:46.565Z,9.02
2024-04-18T10:04:16.956Z,6.38
2024-04-18T10:06:50.285Z,9.82
2024-04-18T10:09:22.264Z,5.47
2024-04-18T10:11:52.390Z,8.55
2024-04-18T10:14:25.251Z,8.48
2024-04-18T10:16:55.269Z,8.07
2024-04-18T10:19:23.655Z,6.03
2024-04-18T10:22:11.405Z,8.30
2024-04-18T10:27:25.084Z,5.43
2024-04-18T10:30:03.153Z,7.65
2024-04-18T10:32:34.892Z,5.10
2024-04-18T10:35:04.621Z,6.25
2024-04-18T10:37:34.352Z,5.90
2024-04-18T10:40:07.896Z,4.55
2024-04-18T10:42:41.401Z,7.03
2024-04-18T10:45:14.163Z,6.82
2024-04-18T10:47:41.651Z,4.53
2024-04-18T10:50:12.480Z,5.25
2024-04-18T10:52:43.588Z,4.80
2024-04-18T10:55:13.432Z,6.57
2024-04-18T10:57:40.920Z,4.72
2024-04-18T11:00:19.071Z,3.15
2024-04-18T11:02:48.986Z,3.30
2024-04-18T11:05:18.936Z,2.50
2024-04-18T11:07:54.966Z,4.05
2024-04-18T11:10:27.146Z,2.78
2024-04-18T11:12:58.241Z,5.93
2024-04-18T11:15:31.933Z,3.17
2024-04-18T11:18:06.048Z,3.50
2024-04-18T11:20:36.116Z,4.60
2024-04-18T11:23:13.615Z,4.28
2024-04-18T11:25:45.632Z,5.97
2024-04-18T11:28:16.428Z,4.25
2024-04-18T11:30:49.346Z,5.28
2024-04-18T11:33:23.184Z,2.80
2024-04-18T11:35:53.645Z,10.50
2024-04-18T11:38:23.770Z,3.67
2024-04-18T11:40:53.519Z,3.15
2024-04-18T11:43:23.264Z,7.35
2024-04-18T11:45:55.681Z,4.03
2024-04-18T11:48:25.715Z,5.68
2024-04-18T11:50:55.646Z,4.55
2024-04-18T11:53:25.381Z,2.92
2024-04-18T11:55:57.606Z,5.07
2024-04-18T11:58:30.872Z,6.10
2024-04-18T12:01:04.083Z,6.90
2024-04-18T12:03:43.580Z,4.50
2024-04-18T12:06:32.470Z,3.95
2024-04-18T12:09:02.425Z,4.55
2024-04-18T12:11:33.448Z,6.60
2024-04-18T12:14:15.541Z,5.90
2024-04-18T12:17:00.419Z,5.63
2024-04-18T12:19:45.885Z,10.50
2024-04-18T12:22:34.140Z,3.88
2024-04-18T12:25:16.734Z,3.22
2024-04-18T12:27:46.555Z,6.32
2024-04-18T12:30:35.568Z,3.33
2024-04-18T12:33:26.437Z,3.10
2024-04-18T12:35:56.378Z,5.25
2024-04-18T12:38:23.497Z,3.75
2024-04-18T12:41:03.774Z,4.90
2024-04-18T12:43:35.255Z,4.85
2024-04-18T12:46:11.572Z,3.78
2024-04-18T12:48:56.936Z,4.32
2024-04-18T12:51:27.190Z,3.03
2024-04-18T12:53:57.672Z,4.90
2024-04-18T12:56:49.428Z,4.22
2024-04-18T12:59:26.019Z,2.05
2024-04-18T13:01:56.001Z,3.50
2024-04-18T13:04:28.520Z,4.85
2024-04-18T13:06:58.590Z,4.18
2024-04-18T13:09:31.355Z,4.25
2024-04-18T13:12:04.830Z,3.78
2024-04-18T13:14:53.993Z,2.95
2024-04-18T13:17:24.383Z,2.85
2024-04-18T13:19:56.834Z,2.05
2024-04-18T13:22:26.523Z,3.28
2024-04-18T13:24:56.430Z,1.90
2024-04-18T13:27:32.616Z,2.53
2024-04-18T13:30:04.960Z,1.83
2024-04-18T13:32:35.174Z,3.33
2024-04-18T13:35:08.489Z,2.08
2024-04-18T13:37:38.499Z,2.42
2024-04-18T13:40:21.319Z,1.55
2024-04-18T13:43:02.509Z,2.35
2024-04-18T13:45:33.853Z,2.55
2024-04-18T13:48:04.745Z,3.42
2024-04-18T13:50:52.887Z,1.75
2024-04-18T13:53:22.710Z,2.22
2024-04-18T13:55:52.677Z,2.72
2024-04-18T13:58:24.140Z,2.45
2024-04-18T14:01:02.872Z,1.00
2024-04-18T14:03:33.198Z,1.75
2024-04-18T14:06:10.468Z,3.40
2024-04-18T14:08:41.217Z,5.90
2024-04-18T14:11:31.055Z,3.72
2024-04-18T14:14:11.429Z,1.48
2024-04-18T14:17:17.428Z,1.40
2024-04-18T14:20:05.380Z,1.17
2024-04-18T14:22:37.883Z,2.60
2024-04-18T14:25:08.264Z,2.42
2024-04-18T14:27:38.218Z,3.25
2024-04-18T14:30:28.369Z,4.22
2024-04-18T14:33:12.836Z,2.47
2024-04-18T14:35:42.904Z,2.97
2024-04-18T14:38:15.369Z,2.78
2024-04-18T14:40:53.271Z,2.88
2024-04-18T14:43:27.878Z,2.28
2024-04-18T14:45:57.907Z,1.05
2024-04-18T14:48:47.690Z,3.15
2024-04-18T14:51:26.372Z,1.58
2024-04-18T14:53:58.765Z,2.08
2024-04-18T14:56:41.708Z,1.92
2024-04-18T14:59:11.404Z,2.70
2024-04-18T15:01:41.114Z,3.13
2024-04-18T15:04:10.877Z,4.43
2024-04-18T15:07:00.825Z,4.18
2024-04-18T15:09:44.560Z,2.00
2024-04-18T15:12:14.678Z,1.58
2024-04-18T15:14:45.067Z,2.70
2024-04-18T15:17:16.441Z,1.83
2024-04-18T15:19:46.711Z,1.52
2024-04-18T15:22:36.049Z,3.78
2024-04-18T15:25:26.921Z,1.95
2024-04-18T15:27:56.897Z,3.55
2024-04-18T15:30:26.985Z,2.55
2024-04-18T15:32:56.922Z,2.75
2024-04-18T15:35:26.662Z,1.92
2024-04-18T15:38:15.433Z,1.70
2024-04-18T15:41:07.725Z,1.92
2024-04-18T15:43:37.778Z,1.58
2024-04-18T15:46:07.847Z,4.15
2024-04-18T15:48:37.852Z,1.80
2024-04-18T15:51:09.540Z,3.10
2024-04-18T15:53:59.468Z,1.27
2024-04-18T15:56:31.755Z,4.63
2024-04-18T15:59:02.026Z,2.70
2024-04-18T16:01:50.758Z,1.88
2024-04-18T16:04:39.487Z,1.45
2024-04-18T16:07:09.312Z,4.47
2024-04-18T16:09:54.340Z,3.00
2024-04-18T16:12:26.934Z,2.88
2024-04-18T16:15:03.476Z,2.75
2024-04-18T16:17:34.354Z,3.67
2024-04-18T16:20:13.920Z,2.15
2024-04-18T16:22:43.803Z,4.38
2024-04-18T16:25:30.411Z,3.30
2024-04-18T16:28:04.067Z,1.70
2024-04-18T16:30:33.965Z,2.03
2024-04-18T16:33:03.942Z,3.50
2024-04-18T16:35:33.727Z,4.72
2024-04-18T16:38:15.441Z,2.10
2024-04-18T16:40:54.306Z,4.43
2024-04-18T16:43:38.265Z,1.17
2024-04-18T16:46:09.196Z,1.75
2024-04-18T16:48:40.088Z,1.10
2024-04-18T16:51:10.070Z,4.55
2024-04-18T16:53:59.485Z,2.85
2024-04-18T16:56:49.192Z,2.15
2024-04-18T16:59:21.671Z,3.35
2024-04-18T17:01:51.576Z,3.50
2024-04-18T17:04:21.573Z,1.15
2024-04-18T17:07:09.572Z,3.20
2024-04-18T17:09:58.973Z,3.97
2024-04-18T17:12:28.809Z,4.70
2024-04-18T17:15:24.021Z,2.20
2024-04-18T17:17:54.054Z,1.70
2024-04-18T17:20:29.909Z,3.75
2024-04-18T17:22:59.837Z,1.90
2024-04-18T17:25:29.846Z,2.58
2024-04-18T17:27:59.782Z,4.10
2024-04-18T17:30:32.158Z,2.72
2024-04-18T17:33:01.934Z,5.13
2024-04-18T17:35:31.650Z,7.80
2024-04-18T17:38:15.082Z,4.10
2024-04-18T17:41:02.549Z,5.45
2024-04-18T17:43:33.864Z,4.32
2024-04-18T17:46:06.568Z,3.30
2024-04-18T17:48:47.722Z,4.85
2024-04-18T17:51:17.798Z,3.75
2024-04-18T17:53:47.605Z,4.15
2024-04-18T17:56:18.069Z,4.50
2024-04-18T17:58:47.818Z,5.40
2024-04-18T18:01:20.283Z,3.42
2024-04-18T18:04:10.353Z,5.05
2024-04-18T18:06:40.193Z,5.63
2024-04-18T18:09:09.978Z,4.18
2024-04-18T18:11:39.869Z,9.73
2024-04-18T18:14:09.716Z,4.50
2024-04-18T18:17:01.828Z,10.25
2024-04-18T18:19:31.808Z,7.07
2024-04-18T18:22:00.617Z,5.88
2024-04-18T18:24:30.465Z,4.45
2024-04-18T18:27:00.225Z,3.80
2024-04-18T18:29:27.381Z,4.03
2024-04-18T18:32:14.806Z,3.13
2024-04-18T18:34:42.884Z,4.20
2024-04-18T18:37:12.810Z,3.40
2024-04-18T18:39:43.071Z,5.03
2024-04-18T18:42:10.406Z,5.10
2024-04-18T18:44:40.283Z,4.25
2024-04-18T18:47:10.036Z,5.05
2024-04-18T18:49:51.768Z,5.32
2024-04-18T18:52:19.650Z,4.47
2024-04-18T18:54:49.947Z,4.75
2024-04-18T18:57:17.111Z,5.32
2024-04-18T18:59:47.063Z,4.20
2024-04-18T19:02:16.882Z,5.00
2024-04-18T19:05:05.029Z,4.60
2024-04-18T19:07:32.210Z,3.97
2024-04-18T19:10:02.274Z,5.90
2024-04-18T19:12:29.465Z,5.70
2024-04-18T19:15:01.450Z,4.57
2024-04-18T19:17:32.063Z,3.88
2024-04-18T19:20:02.012Z,5.45
2024-04-18T19:22:29.154Z,6.80
2024-04-18T19:24:58.837Z,8.18
2024-04-18T19:27:26.056Z,9.23
2024-04-18T19:29:57.234Z,7.88
2024-04-18T19:32:24.967Z,6.70
2024-04-18T19:34:57.371Z,4.90
2024-04-18T19:37:24.466Z,7.10
2024-04-18T19:39:54.708Z,5.03
2024-04-18T19:42:21.797Z,3.67
2024-04-18T19:44:55.792Z,4.95
2024-04-18T19:47:22.882Z,3.75
2024-04-18T19:49:52.546Z,3.33
2024-04-18T19:52:22.532Z,4.07
2024-04-18T19:54:52.579Z,4.63
2024-04-18T19:57:22.315Z,3.42
2024-04-18T19:59:49.463Z,3.95
2024-04-18T20:02:19.336Z,4.07
2024-04-18T20:04:46.476Z,8.68
2024-04-18T20:07:16.412Z,4.35
2024-04-18T20:09:46.300Z,3.83
2024-04-18T20:12:16.070Z,9.13
2024-04-18T20:15:03.238Z,5.18
2024-04-18T20:17:32.991Z,4.43
2024-04-18T20:20:00.124Z,4.32
2024-04-18T20:22:29.813Z,5.18
2024-04-18T20:24:59.605Z,7.10
2024-04-18T20:27:42.323Z,5.90
2024-04-18T20:30:09.940Z,6.53
2024-04-18T20:32:59.696Z,8.77
2024-04-18T20:35:26.874Z,5.22
2024-04-18T20:37:56.991Z,5.97
2024-04-18T20:40:26.869Z,7.10
2024-04-18T20:42:56.612Z,7.82
2024-04-18T20:45:23.818Z,7.68
2024-04-18T20:47:55.224Z,5.82
2024-04-18T20:50:22.359Z,5.95
2024-04-18T20:52:52.128Z,5.30
2024-04-18T20:55:19.209Z,5.63
2024-04-18T20:57:51.646Z,7.30
2024-04-18T21:00:28.146Z,5.88
2024-04-18T21:02:58.002Z,6.93
2024-04-18T21:05:25.063Z,6.97
2024-04-18T21:07:54.953Z,6.40
2024-04-18T21:10:22.152Z,5.10
2024-04-18T21:12:54.498Z,5.00
2024-04-18T21:15:21.716Z,5.60
2024-04-18T21:17:51.606Z,4.75
2024-04-18T21:20:18.707Z,5.47
2024-04-18T21:22:49.487Z,5.32
2024-04-18T21:25:16.931Z,7.45
2024-04-18T21:27:46.683Z,6.07
2024-04-18T21:30:16.822Z,6.35
2024-04-18T21:32:46.655Z,6.68
2024-04-18T21:35:31.199Z,5.80
2024-04-18T21:38:01.125Z,9.40
2024-04-18T21:40:28.964Z,7.70
2024-04-18T21:43:03.837Z,7.93
2024-04-18T21:45:34.281Z,4.68
2024-04-18T21:48:04.230Z,6.72
2024-04-18T21:50:31.628Z,4.80
2024-04-18T21:53:01.852Z,9.35
2024-04-18T21:55:29.094Z,6.88
2024-04-18T21:57:58.838Z,6.75
2024-04-18T22:00:29.288Z,6.60
2024-04-18T22:03:02.053Z,6.90
2024-04-18T22:05:31.907Z,5.78
2024-04-18T22:08:02.020Z,6.15
2024-04-18T22:10:32.012Z,8.45
2024-04-18T22:12:59.207Z,10.00
2024-04-18T22:15:29.080Z,6.28
2024-04-18T22:17:56.435Z,6.85
2024-04-18T22:20:28.856Z,8.20
2024-04-18T22:23:14.405Z,6.68
2024-04-18T22:25:45.411Z,5.15
2024-04-18T22:28:12.601Z,6.40
2024-04-18T22:30:42.441Z,7.65
2024-04-18T22:33:09.613Z,5.57
2024-04-18T22:35:42.337Z,5.18
2024-04-18T22:38:09.492Z,7.03
2024-04-18T22:40:39.632Z,5.57
2024-04-18T22:43:06.782Z,5.75
2024-04-18T22:45:36.509Z,8.85
2024-04-18T22:48:04.184Z,7.72
2024-04-18T22:50:33.973Z,5.25
2024-04-18T22:53:04.020Z,9.13
2024-04-18T22:55:33.807Z,7.15
2024-04-18T22:58:05.137Z,3.95
2024-04-18T23:00:38.984Z,4.88
2024-04-18T23:03:06.990Z,8.05
2024-04-18T23:05:39.903Z,4.10
2024-04-18T23:08:09.810Z,5.32
2024-04-18T23:10:39.563Z,4.63
2024-04-18T23:13:06.966Z,9.23
2024-04-18T23:15:54.682Z,5.30
2024-04-18T23:18:21.982Z,6.60
2024-04-18T23:20:55.462Z,4.95
2024-04-18T23:23:35.761Z,10.13
2024-04-18T23:26:05.634Z,6.82
2024-04-18T23:28:32.815Z,6.00
2024-04-18T23:31:02.646Z,7.57
2024-04-18T23:33:32.650Z,5.82
2024-04-18T23:36:00.988Z,5.70
2024-04-18T23:38:30.745Z,7.28
2024-04-18T23:41:00.580Z,6.00
2024-04-18T23:43:30.422Z,5.32
2024-04-18T23:45:58.032Z,6.22
2024-04-18T23:48:27.923Z,6.13
2024-04-18T23:50:55.233Z,8.13
2024-04-18T23:53:24.956Z,6.63
2024-04-18T23:55:52.178Z,5.18
2024-04-18T23:58:24.688Z,7.63
